Time;durP1;ratioP1;P1;durP2;ratioP2;P2;SDS_P1;SDS_P2;PMS_P1;PMS_P2;Temp;Humidity;BMP_temperature;BMP_pressure;BME280_temperature;BME280_humidity;BME280_pressure;Samples;Min_cycle;Max_cycle;Signal;HPM_P1;HPM_P2
2021/03/21 00:00:39;;;;;;;0.10;0.10;;;;;;;;;;6160823;23;20176;-59
2021/03/21 00:03:06;;;;;;;0.87;0.87;;;;;;;;;;6162118;23;20629;-58
2021/03/21 00:05:33;;;;;;;0.00;0.00;;;;;;;;;;6160531;23;20144;-58
2021/03/21 00:08:03;;;;;;;0.00;0.00;;;;;;;;;;6159859;23;20148;-59
2021/03/21 00:10:30;;;;;;;0.00;0.00;;;;;;;;;;6161896;23;20922;-58
2021/03/21 00:12:58;;;;;;;0.20;0.20;;;;;;;;;;6161648;23;20253;-59
2021/03/21 00:15:25;;;;;;;0.20;0.20;;;;;;;;;;6160569;23;20602;-59
2021/03/21 00:17:54;;;;;;;0.20;0.20;;;;;;;;;;6159116;23;20195;-58
2021/03/21 00:20:26;;;;;;;0.57;0.57;;;;;;;;;;6161727;22;20146;-59
2021/03/21 00:22:53;;;;;;;0.30;0.30;;;;;;;;;;6160484;23;20274;-59
2021/03/21 00:25:22;;;;;;;0.70;0.53;;;;;;;;;;6161483;23;20144;-59
2021/03/21 00:27:49;;;;;;;0.00;0.00;;;;;;;;;;6159690;23;20269;-59
2021/03/21 00:30:19;;;;;;;0.00;0.00;;;;;;;;;;6162657;23;20196;-60
2021/03/21 00:32:46;;;;;;;0.63;0.30;;;;;;;;;;6159442;23;20161;-60
2021/03/21 00:35:13;;;;;;;0.23;0.23;;;;;;;;;;6136509;23;20174;-59
2021/03/21 00:37:42;;;;;;;0.10;0.10;;;;;;;;;;6137342;23;20249;-59
2021/03/21 00:40:11;;;;;;;0.63;0.63;;;;;;;;;;6162306;23;20232;-60
2021/03/21 00:42:40;;;;;;;0.10;0.10;;;;;;;;;;6158773;23;20206;-60
2021/03/21 00:45:08;;;;;;;0.00;0.00;;;;;;;;;;6161781;23;20878;-58
2021/03/21 00:47:36;;;;;;;0.10;0.10;;;;;;;;;;6160786;23;20228;-60
2021/03/21 00:50:06;;;;;;;0.10;0.10;;;;;;;;;;6159206;23;20159;-59
2021/03/21 00:52:33;;;;;;;0.10;0.10;;;;;;;;;;6160212;23;20175;-60
2021/03/21 00:54:59;;;;;;;0.10;0.10;;;;;;;;;;6161926;23;20151;-60
2021/03/21 00:57:27;;;;;;;0.10;0.10;;;;;;;;;;6136086;23;20185;-60
2021/03/21 00:59:56;;;;;;;0.10;0.10;;;;;;;;;;6158919;23;20174;-60
2021/03/21 01:02:23;;;;;;;0.10;0.10;;;;;;;;;;6160868;23;20193;-60
2021/03/21 01:04:51;;;;;;;0.07;0.07;;;;;;;;;;6159609;23;20170;-61
2021/03/21 01:07:25;;;;;;;0.10;0.10;;;;;;;;;;6159932;23;20659;-60
2021/03/21 01:09:55;;;;;;;0.20;0.20;;;;;;;;;;6159040;22;20140;-60
2021/03/21 01:12:21;;;;;;;0.00;0.00;;;;;;;;;;6157845;23;20147;-61
2021/03/21 01:14:48;;;;;;;0.10;0.10;;;;;;;;;;6156725;23;20221;-62
2021/03/21 01:17:14;;;;;;;0.60;0.60;;;;;;;;;;6160697;23;20148;-60
2021/03/21 01:19:41;;;;;;;0.10;0.10;;;;;;;;;;6161067;23;20238;-61
2021/03/21 13:16:46;;;;;;;0.00;0.00;;;;;;;;;;5079516;27;21243;-59
2021/03/21 13:19:12;;;;;;;0.30;0.30;;;;;;;;;;5066022;28;21025;-59
2021/03/21 13:21:39;;;;;;;0.10;0.10;;;;;;;;;;5063261;28;20295;-58
2021/03/21 13:24:05;;;;;;;0.70;0.30;;;;;;;;;;5061546;28;21054;-58
2021/03/21 13:26:32;;;;;;;0.23;0.10;;;;;;;;;;5062894;28;20194;-59
2021/03/21 13:28:59;;;;;;;0.10;0.10;;;;;;;;;;5083436;28;20184;-58
2021/03/21 13:31:25;;;;;;;0.17;0.17;;;;;;;;;;5063538;28;20190;-58
2021/03/21 13:33:52;;;;;;;0.00;0.00;;;;;;;;;;5068852;28;20181;-59
2021/03/21 13:36:19;;;;;;;0.20;0.20;;;;;;;;;;5065691;28;20766;-58
2021/03/21 13:38:46;;;;;;;0.00;0.00;;;;;;;;;;5064853;28;20188;-59
2021/03/21 13:41:12;;;;;;;0.53;0.20;;;;;;;;;;5061570;28;20177;-59
2021/03/21 13:43:39;;;;;;;0.00;0.00;;;;;;;;;;5062538;28;20320;-58
2021/03/21 13:46:05;;;;;;;0.30;0.30;;;;;;;;;;5062274;28;20201;-58
2021/03/21 13:48:32;;;;;;;0.00;0.00;;;;;;;;;;5061751;28;20181;-59
2021/03/21 13:50:59;;;;;;;0.00;0.00;;;;;;;;;;5056535;28;20594;-58
2021/03/21 13:53:29;;;;;;;0.00;0.00;;;;;;;;;;5037702;28;20256;-59
2021/03/21 13:55:57;;;;;;;0.77;0.07;;;;;;;;;;5057884;28;20271;-59
2021/03/21 13:58:23;;;;;;;0.00;0.00;;;;;;;;;;5072088;28;20192;-58
2021/03/21 14:00:50;;;;;;;0.00;0.00;;;;;;;;;;5071820;28;20221;-58
2021/03/21 14:03:17;;;;;;;0.00;0.00;;;;;;;;;;5056723;28;20551;-58
2021/03/21 14:05:44;;;;;;;0.27;0.23;;;;;;;;;;5050805;28;20185;-58
2021/03/21 14:08:11;;;;;;;2.03;0.27;;;;;;;;;;5053540;28;20302;-59
2021/03/21 14:10:39;;;;;;;0.47;0.00;;;;;;;;;;5063389;28;20216;-58
2021/03/21 14:13:06;;;;;;;0.00;0.00;;;;;;;;;;5074500;28;20187;-59
2021/03/21 14:15:33;;;;;;;0.27;0.27;;;;;;;;;;5073336;28;20236;-58
2021/03/21 14:18:01;;;;;;;0.30;0.20;;;;;;;;;;5073914;28;20540;-59
2021/03/21 14:20:30;;;;;;;15.10;0.33;;;;;;;;;;5074009;28;20183;-59
2021/03/21 14:22:57;;;;;;;0.00;0.00;;;;;;;;;;5072246;28;20206;-58
2021/03/21 14:25:24;;;;;;;1.60;0.23;;;;;;;;;;5056679;28;20211;-58
2021/03/21 14:27:53;;;;;;;0.00;0.00;;;;;;;;;;5054662;28;20253;-58
2021/03/21 14:30:19;;;;;;;1.90;0.07;;;;;;;;;;5060390;28;20198;-58
2021/03/21 14:32:46;;;;;;;0.00;0.00;;;;;;;;;;5059976;28;20216;-59
2021/03/21 14:35:13;;;;;;;0.53;0.53;;;;;;;;;;5060370;28;20212;-58
2021/03/21 14:37:40;;;;;;;3.60;2.07;;;;;;;;;;5061145;28;20652;-58
2021/03/21 14:40:07;;;;;;;0.07;0.03;;;;;;;;;;5055065;28;20195;-59
2021/03/21 14:42:34;;;;;;;0.53;0.20;;;;;;;;;;5059494;28;20919;-59
2021/03/21 14:45:00;;;;;;;1.23;0.60;;;;;;;;;;5052353;28;20715;-59
2021/03/21 14:47:27;;;;;;;0.40;0.00;;;;;;;;;;5060077;28;20953;-59
2021/03/21 14:49:54;;;;;;;0.13;0.10;;;;;;;;;;5057870;28;20794;-59
2021/03/21 14:52:20;;;;;;;25.37;1.30;;;;;;;;;;5041210;28;20197;-59
2021/03/21 14:54:47;;;;;;;0.40;0.20;;;;;;;;;;5040689;28;20672;-59
2021/03/21 14:57:14;;;;;;;0.00;0.00;;;;;;;;;;5057014;28;20183;-59
2021/03/21 14:59:40;;;;;;;0.00;0.00;;;;;;;;;;5061785;28;20264;-59
2021/03/21 15:02:08;;;;;;;0.10;0.00;;;;;;;;;;5066133;28;20171;-59
2021/03/21 15:04:34;;;;;;;0.00;0.00;;;;;;;;;;5048683;28;20198;-59
2021/03/21 15:07:01;;;;;;;3.00;2.80;;;;;;;;;;5037415;28;20213;-59
2021/03/21 15:09:27;;;;;;;0.27;0.27;;;;;;;;;;5047916;28;20189;-61
2021/03/21 15:11:54;;;;;;;0.00;0.00;;;;;;;;;;5050175;28;20294;-59
2021/03/21 15:14:20;;;;;;;0.20;0.20;;;;;;;;;;5042073;28;20190;-59
2021/03/21 15:16:47;;;;;;;0.13;0.13;;;;;;;;;;5050828;28;20430;-60
2021/03/21 15:19:14;;;;;;;0.07;0.07;;;;;;;;;;5060421;28;20692;-59
2021/03/21 15:21:41;;;;;;;0.17;0.13;;;;;;;;;;5039794;28;20180;-59
2021/03/21 15:24:08;;;;;;;0.00;0.00;;;;;;;;;;5043268;28;20228;-59
2021/03/21 15:26:34;;;;;;;0.00;0.00;;;;;;;;;;5056976;28;20936;-59
2021/03/21 15:29:02;;;;;;;0.00;0.00;;;;;;;;;;5044605;28;20709;-59
2021/03/21 15:31:36;;;;;;;0.20;0.20;;;;;;;;;;5043037;28;20274;-59
2021/03/21 15:34:04;;;;;;;0.10;0.10;;;;;;;;;;5041607;28;20194;-60
2021/03/21 15:36:30;;;;;;;0.17;0.13;;;;;;;;;;5039938;28;20203;-59
2021/03/21 15:38:58;;;;;;;0.00;0.00;;;;;;;;;;5049562;28;20290;-60
2021/03/21 15:41:26;;;;;;;0.27;0.10;;;;;;;;;;5054919;28;20175;-60
2021/03/21 15:43:53;;;;;;;0.00;0.00;;;;;;;;;;5048420;28;20184;-59
2021/03/21 15:46:21;;;;;;;0.00;0.00;;;;;;;;;;5040943;28;20185;-60
2021/03/21 15:48:48;;;;;;;0.10;0.10;;;;;;;;;;5059238;28;20235;-60
2021/03/21 15:51:15;;;;;;;0.10;0.10;;;;;;;;;;5058642;28;20311;-59
2021/03/21 15:53:42;;;;;;;2.27;0.40;;;;;;;;;;5057952;28;20216;-60
2021/03/21 15:56:09;;;;;;;0.00;0.00;;;;;;;;;;5053043;28;20803;-60
2021/03/21 15:58:35;;;;;;;0.00;0.00;;;;;;;;;;5046521;28;20191;-61
2021/03/21 16:01:04;;;;;;;0.00;0.00;;;;;;;;;;5039455;28;20190;-60
2021/03/21 16:03:31;;;;;;;0.93;0.30;;;;;;;;;;5043522;28;20194;-59
2021/03/21 16:05:57;;;;;;;0.00;0.00;;;;;;;;;;5038701;28;20494;-60
2021/03/21 16:08:24;;;;;;;0.50;0.10;;;;;;;;;;5039765;28;20774;-58
2021/03/21 16:10:50;;;;;;;0.00;0.00;;;;;;;;;;5038941;28;20564;-59
2021/03/21 16:13:17;;;;;;;2.70;0.10;;;;;;;;;;5045844;28;20184;-59
2021/03/21 16:15:45;;;;;;;3.07;0.57;;;;;;;;;;5052670;28;20231;-59
2021/03/21 16:18:12;;;;;;;2.00;0.43;;;;;;;;;;5041330;28;20185;-60
2021/03/21 16:20:39;;;;;;;0.00;0.00;;;;;;;;;;5054178;28;20182;-58
2021/03/21 16:23:07;;;;;;;0.00;0.00;;;;;;;;;;5046972;28;20191;-59
2021/03/21 16:25:35;;;;;;;0.13;0.07;;;;;;;;;;5047979;28;20279;-58
2021/03/21 16:28:02;;;;;;;0.20;0.07;;;;;;;;;;5056904;28;20195;-58
2021/03/21 16:30:32;;;;;;;0.00;0.00;;;;;;;;;;5041951;28;20209;-59
2021/03/21 16:32:59;;;;;;;0.07;0.07;;;;;;;;;;5038606;28;20193;-59
2021/03/21 16:35:28;;;;;;;0.10;0.00;;;;;;;;;;5038560;28;20865;-59
2021/03/21 16:37:57;;;;;;;0.13;0.13;;;;;;;;;;5043468;28;20186;-59
2021/03/21 16:40:25;;;;;;;0.00;0.00;;;;;;;;;;5053749;28;20182;-59
2021/03/21 16:42:51;;;;;;;0.20;0.10;;;;;;;;;;5044796;28;20185;-59
2021/03/21 16:45:19;;;;;;;2.30;0.73;;;;;;;;;;5038981;28;20194;-59
2021/03/21 16:47:46;;;;;;;0.00;0.00;;;;;;;;;;5047756;28;20228;-59
2021/03/21 16:50:13;;;;;;;0.33;0.30;;;;;;;;;;5051315;28;20223;-59
2021/03/21 16:52:40;;;;;;;0.43;0.10;;;;;;;;;;5051276;28;20613;-58
2021/03/21 16:55:07;;;;;;;0.20;0.10;;;;;;;;;;5037673;28;20987;-59
2021/03/21 16:57:34;;;;;;;0.90;0.10;;;;;;;;;;5043014;28;20205;-59
2021/03/21 17:00:00;;;;;;;0.00;0.00;;;;;;;;;;5058605;28;20178;-59
2021/03/21 17:02:28;;;;;;;0.00;0.00;;;;;;;;;;5057364;28;20235;-58
2021/03/21 17:04:55;;;;;;;0.00;0.00;;;;;;;;;;5058988;28;20186;-59
2021/03/21 17:07:21;;;;;;;0.07;0.07;;;;;;;;;;5055361;28;20300;-59
2021/03/21 17:09:48;;;;;;;0.00;0.00;;;;;;;;;;5045169;28;20250;-59
2021/03/21 17:12:15;;;;;;;0.00;0.00;;;;;;;;;;5046814;28;20199;-60
2021/03/21 17:14:41;;;;;;;0.47;0.30;;;;;;;;;;5052357;28;20263;-60
2021/03/21 17:17:08;;;;;;;0.50;0.50;;;;;;;;;;5036339;28;20181;-58
2021/03/21 17:19:36;;;;;;;0.10;0.10;;;;;;;;;;5043139;28;20190;-59
2021/03/21 17:22:03;;;;;;;0.83;0.83;;;;;;;;;;5038923;28;20301;-59
2021/03/21 17:24:30;;;;;;;0.10;0.10;;;;;;;;;;5044098;28;20237;-59
2021/03/21 17:26:57;;;;;;;0.10;0.10;;;;;;;;;;5046500;28;20238;-59
2021/03/21 17:29:24;;;;;;;0.00;0.00;;;;;;;;;;5056553;28;20179;-59
2021/03/21 17:31:51;;;;;;;0.50;0.30;;;;;;;;;;5050090;28;20178;-59
2021/03/21 17:34:18;;;;;;;0.00;0.00;;;;;;;;;;5050920;28;20194;-59
2021/03/21 17:36:45;;;;;;;0.07;0.07;;;;;;;;;;5045885;28;20201;-59
2021/03/21 17:39:12;;;;;;;0.10;0.00;;;;;;;;;;5054466;28;20179;-58
2021/03/21 17:41:39;;;;;;;0.30;0.30;;;;;;;;;;5045610;28;20273;-59
2021/03/21 17:44:06;;;;;;;0.10;0.10;;;;;;;;;;5047203;28;20892;-59
2021/03/21 17:46:33;;;;;;;0.23;0.23;;;;;;;;;;5048071;28;20193;-59
2021/03/21 17:49:00;;;;;;;0.00;0.00;;;;;;;;;;5035387;28;20304;-60
2021/03/21 17:51:27;;;;;;;0.40;0.40;;;;;;;;;;5048393;28;20216;-59
2021/03/21 17:53:54;;;;;;;2.60;0.63;;;;;;;;;;5046554;28;20417;-58
2021/03/21 17:56:22;;;;;;;0.00;0.00;;;;;;;;;;5049233;28;20209;-58
2021/03/21 17:58:49;;;;;;;0.50;0.40;;;;;;;;;;5045803;28;20188;-58
2021/03/21 18:01:18;;;;;;;0.20;0.20;;;;;;;;;;5044341;28;20206;-59
2021/03/21 18:03:45;;;;;;;0.10;0.10;;;;;;;;;;5048746;28;20182;-59
2021/03/21 18:06:13;;;;;;;0.87;0.47;;;;;;;;;;5053137;28;20215;-59
2021/03/21 18:08:40;;;;;;;0.00;0.00;;;;;;;;;;5043644;28;20182;-59
2021/03/21 18:11:08;;;;;;;0.40;0.20;;;;;;;;;;5052975;28;20192;-59
2021/03/21 18:13:36;;;;;;;1.33;0.27;;;;;;;;;;5052503;28;20199;-59
2021/03/21 18:16:03;;;;;;;0.50;0.50;;;;;;;;;;5053557;28;20224;-59
2021/03/21 18:18:30;;;;;;;1.67;0.33;;;;;;;;;;5045376;28;20171;-59
2021/03/21 18:20:58;;;;;;;1.43;1.33;;;;;;;;;;5050763;28;20248;-58
2021/03/21 18:23:26;;;;;;;1.10;0.67;;;;;;;;;;5048401;28;20179;-59
2021/03/21 18:25:54;;;;;;;0.00;0.00;;;;;;;;;;5053330;28;20201;-59
2021/03/21 18:28:21;;;;;;;0.00;0.00;;;;;;;;;;5053023;28;20803;-59
2021/03/21 18:30:48;;;;;;;0.97;0.10;;;;;;;;;;5045338;28;20195;-59
2021/03/21 18:33:29;;;;;;;0.00;0.00;;;;;;;;;;5050413;28;20190;-59
2021/03/21 18:35:56;;;;;;;1.20;0.47;;;;;;;;;;5046548;28;20201;-58
2021/03/21 18:38:24;;;;;;;0.00;0.00;;;;;;;;;;5049862;28;20176;-57
2021/03/21 18:40:51;;;;;;;0.83;0.17;;;;;;;;;;5047779;28;20190;-58
2021/03/21 18:43:18;;;;;;;0.70;0.10;;;;;;;;;;5050698;28;20282;-57
2021/03/21 18:45:46;;;;;;;0.27;0.13;;;;;;;;;;5049637;28;20181;-58
2021/03/21 18:48:14;;;;;;;0.03;0.03;;;;;;;;;;5052739;28;20200;-57
2021/03/21 18:50:41;;;;;;;0.40;0.20;;;;;;;;;;5046581;28;20858;-58
2021/03/21 18:53:09;;;;;;;1.07;0.43;;;;;;;;;;5052934;28;20280;-57
2021/03/21 18:55:36;;;;;;;0.30;0.20;;;;;;;;;;5052781;28;20210;-58
2021/03/21 18:58:04;;;;;;;0.10;0.00;;;;;;;;;;5046551;28;20181;-57
2021/03/21 19:00:35;;;;;;;1.03;0.63;;;;;;;;;;5052783;28;20273;-58
2021/03/21 19:03:03;;;;;;;0.10;0.00;;;;;;;;;;5047351;28;20172;-57
2021/03/21 19:05:31;;;;;;;14.13;0.43;;;;;;;;;;5054737;28;20212;-58
2021/03/21 19:07:58;;;;;;;0.00;0.00;;;;;;;;;;5053435;28;20799;-57
2021/03/21 19:10:33;;;;;;;3.03;0.37;;;;;;;;;;5048784;28;20193;-58
2021/03/21 19:13:02;;;;;;;0.00;0.00;;;;;;;;;;5043794;28;20194;-58
2021/03/21 19:15:29;;;;;;;0.00;0.00;;;;;;;;;;5049568;28;20225;-56
2021/03/21 19:17:56;;;;;;;0.00;0.00;;;;;;;;;;5047938;28;20209;-56
2021/03/21 19:20:24;;;;;;;0.00;0.00;;;;;;;;;;5052219;28;20190;-57
2021/03/21 19:22:52;;;;;;;0.00;0.00;;;;;;;;;;5053163;28;20191;-57
2021/03/21 19:25:19;;;;;;;1.80;0.10;;;;;;;;;;5049683;28;20240;-57
2021/03/21 19:27:46;;;;;;;1.10;0.17;;;;;;;;;;5045690;28;20186;-57
2021/03/21 19:30:17;;;;;;;0.00;0.00;;;;;;;;;;5049527;28;20284;-57
2021/03/21 19:32:45;;;;;;;0.10;0.10;;;;;;;;;;5046057;28;20527;-57
2021/03/21 19:35:14;;;;;;;0.00;0.00;;;;;;;;;;5047684;28;20241;-58
2021/03/21 19:37:43;;;;;;;0.00;0.00;;;;;;;;;;5046405;28;20208;-57
2021/03/21 19:40:11;;;;;;;0.00;0.00;;;;;;;;;;5045689;28;20174;-57
2021/03/21 19:42:38;;;;;;;0.13;0.13;;;;;;;;;;5045988;28;20290;-57
2021/03/21 19:45:09;;;;;;;0.47;0.27;;;;;;;;;;5041980;28;20224;-58
2021/03/21 19:47:38;;;;;;;0.30;0.30;;;;;;;;;;5048997;28;20217;-58
2021/03/21 19:50:06;;;;;;;0.13;0.13;;;;;;;;;;5051795;28;20197;-57
2021/03/21 19:52:34;;;;;;;0.00;0.00;;;;;;;;;;5050341;28;20219;-58
2021/03/21 19:55:03;;;;;;;1.93;0.20;;;;;;;;;;5051647;28;20216;-57
2021/03/21 19:57:30;;;;;;;7.23;0.30;;;;;;;;;;5048944;28;20835;-58
2021/03/21 19:59:59;;;;;;;0.00;0.00;;;;;;;;;;5051800;28;20253;-58
2021/03/21 20:02:26;;;;;;;0.10;0.10;;;;;;;;;;5053702;28;20175;-58
2021/03/21 20:04:54;;;;;;;0.00;0.00;;;;;;;;;;5056961;28;20240;-58
2021/03/21 20:07:22;;;;;;;0.10;0.10;;;;;;;;;;5049383;28;20187;-57
2021/03/21 20:09:49;;;;;;;0.13;0.03;;;;;;;;;;5053647;28;20191;-58
2021/03/21 20:12:16;;;;;;;0.77;0.40;;;;;;;;;;5057193;28;20230;-57
2021/03/21 20:14:43;;;;;;;0.00;0.00;;;;;;;;;;5052454;28;20211;-58
2021/03/21 20:17:11;;;;;;;0.00;0.00;;;;;;;;;;5049584;28;20193;-58
2021/03/21 20:19:39;;;;;;;0.33;0.20;;;;;;;;;;5055879;28;20195;-57
2021/03/21 20:22:06;;;;;;;0.00;0.00;;;;;;;;;;5054356;28;20194;-58
2021/03/21 20:24:34;;;;;;;0.87;0.13;;;;;;;;;;5055134;28;20185;-57
2021/03/21 20:27:02;;;;;;;0.00;0.00;;;;;;;;;;5057196;28;20189;-58
2021/03/21 20:29:29;;;;;;;0.50;0.50;;;;;;;;;;5055767;28;20191;-59
2021/03/21 20:31:56;;;;;;;0.13;0.13;;;;;;;;;;5050939;28;20936;-58
2021/03/21 20:34:23;;;;;;;0.00;0.00;;;;;;;;;;5053974;28;20179;-58
2021/03/21 20:36:51;;;;;;;1.13;0.30;;;;;;;;;;5053561;28;21007;-57
2021/03/21 20:39:18;;;;;;;0.00;0.00;;;;;;;;;;5050923;28;20290;-58
2021/03/21 20:41:46;;;;;;;0.00;0.00;;;;;;;;;;5066479;28;20243;-58
2021/03/21 20:44:14;;;;;;;0.00;0.00;;;;;;;;;;5054811;28;20185;-58
2021/03/21 20:46:41;;;;;;;0.47;0.37;;;;;;;;;;5046216;28;20908;-58
2021/03/21 20:49:09;;;;;;;24.43;0.83;;;;;;;;;;5047204;28;20349;-59
2021/03/21 20:51:37;;;;;;;0.77;0.53;;;;;;;;;;5046889;28;20229;-58
2021/03/21 20:54:04;;;;;;;0.20;0.20;;;;;;;;;;5056971;28;20212;-58
2021/03/21 20:56:31;;;;;;;0.00;0.00;;;;;;;;;;5048187;28;20267;-58
2021/03/21 20:58:58;;;;;;;0.40;0.00;;;;;;;;;;5053956;28;20192;-58
2021/03/21 21:01:28;;;;;;;0.03;0.03;;;;;;;;;;5054348;28;20184;-58
2021/03/21 21:03:55;;;;;;;7.40;0.93;;;;;;;;;;5044001;28;20244;-59
2021/03/21 21:06:25;;;;;;;0.00;0.00;;;;;;;;;;5043684;28;20193;-58
2021/03/21 21:08:54;;;;;;;6.50;0.20;;;;;;;;;;5040680;28;20193;-59
2021/03/21 21:11:22;;;;;;;0.00;0.00;;;;;;;;;;5045343;28;20195;-58
2021/03/21 21:13:50;;;;;;;0.00;0.00;;;;;;;;;;5044850;28;20967;-58
2021/03/21 21:16:17;;;;;;;0.20;0.20;;;;;;;;;;5015681;28;20295;-58
2021/03/21 21:18:45;;;;;;;0.00;0.00;;;;;;;;;;5008297;28;20284;-58
2021/03/21 21:21:15;;;;;;;1.50;1.20;;;;;;;;;;5014319;28;20284;-58
2021/03/21 21:23:44;;;;;;;0.00;0.00;;;;;;;;;;5013152;28;20228;-58
2021/03/21 21:26:11;;;;;;;0.00;0.00;;;;;;;;;;5007207;28;20662;-58
2021/03/21 21:28:39;;;;;;;0.00;0.00;;;;;;;;;;5007495;28;20243;-58
2021/03/21 21:31:11;;;;;;;0.00;0.00;;;;;;;;;;5008994;28;20184;-59
2021/03/21 21:33:38;;;;;;;0.00;0.00;;;;;;;;;;5017397;28;20197;-58
2021/03/21 21:36:05;;;;;;;1.33;0.53;;;;;;;;;;5020144;28;20320;-58
2021/03/21 21:38:32;;;;;;;0.00;0.00;;;;;;;;;;5017990;28;20664;-58
2021/03/21 21:40:59;;;;;;;0.00;0.00;;;;;;;;;;5017623;28;20184;-58
2021/03/21 21:43:27;;;;;;;0.00;0.00;;;;;;;;;;5016840;28;20242;-58
2021/03/21 21:45:55;;;;;;;0.93;0.53;;;;;;;;;;5016574;28;20188;-58
2021/03/21 21:48:22;;;;;;;0.00;0.00;;;;;;;;;;5019946;28;21068;-58
2021/03/21 21:50:49;;;;;;;2.70;0.10;;;;;;;;;;5016665;28;20758;-58
2021/03/21 21:53:17;;;;;;;0.00;0.00;;;;;;;;;;5010091;28;20197;-59
2021/03/21 21:55:45;;;;;;;1.50;0.87;;;;;;;;;;5012236;28;20219;-58
2021/03/21 21:58:16;;;;;;;0.00;0.00;;;;;;;;;;5014759;28;21011;-58
2021/03/21 22:00:43;;;;;;;0.00;0.00;;;;;;;;;;5014030;28;20276;-58
2021/03/21 22:03:11;;;;;;;0.83;0.83;;;;;;;;;;5016212;28;20189;-58
2021/03/21 22:05:38;;;;;;;0.00;0.00;;;;;;;;;;5011793;28;20291;-58
2021/03/21 22:08:10;;;;;;;0.30;0.23;;;;;;;;;;5006857;28;20257;-58
2021/03/21 22:10:38;;;;;;;0.00;0.00;;;;;;;;;;5003436;28;21052;-58
2021/03/21 22:13:06;;;;;;;1.17;0.10;;;;;;;;;;5007471;28;20686;-58
2021/03/21 22:15:34;;;;;;;0.00;0.00;;;;;;;;;;5022041;28;21391;-58
2021/03/21 22:18:01;;;;;;;0.00;0.00;;;;;;;;;;5045464;28;20618;-58
2021/03/21 22:20:30;;;;;;;0.20;0.10;;;;;;;;;;5050438;28;20194;-58
2021/03/21 22:23:00;;;;;;;0.00;0.00;;;;;;;;;;5046965;28;20186;-58
2021/03/21 22:25:28;;;;;;;0.00;0.00;;;;;;;;;;5043954;28;20193;-58
2021/03/21 22:27:55;;;;;;;0.00;0.00;;;;;;;;;;5040878;28;20296;-58
2021/03/21 22:30:22;;;;;;;0.00;0.00;;;;;;;;;;5042888;28;20920;-57
2021/03/21 22:32:56;;;;;;;0.00;0.00;;;;;;;;;;5041380;28;20185;-57
2021/03/21 22:35:25;;;;;;;0.00;0.00;;;;;;;;;;5039998;28;20738;-60
2021/03/21 22:37:53;;;;;;;0.10;0.10;;;;;;;;;;5043662;28;20196;-59
2021/03/21 22:40:23;;;;;;;3.93;1.50;;;;;;;;;;5039716;28;20179;-58
2021/03/21 22:42:49;;;;;;;0.40;0.40;;;;;;;;;;5048429;28;20190;-58
2021/03/21 22:45:17;;;;;;;0.00;0.00;;;;;;;;;;5044764;28;20191;-58
2021/03/21 22:47:44;;;;;;;0.20;0.20;;;;;;;;;;5043021;28;20199;-59
2021/03/21 22:50:11;;;;;;;0.10;0.10;;;;;;;;;;5071033;28;20190;-58
2021/03/21 22:52:38;;;;;;;0.10;0.10;;;;;;;;;;5049532;28;20206;-58
2021/03/21 22:55:06;;;;;;;0.00;0.00;;;;;;;;;;5051135;28;20211;-58
2021/03/21 22:57:32;;;;;;;0.00;0.00;;;;;;;;;;5044023;28;20979;-58
2021/03/21 22:59:59;;;;;;;0.00;0.00;;;;;;;;;;5045328;28;20235;-58
2021/03/21 23:02:26;;;;;;;0.00;0.00;;;;;;;;;;5051110;28;20729;-57
2021/03/21 23:04:53;;;;;;;0.03;0.00;;;;;;;;;;5043979;28;21797;-55
2021/03/21 23:07:20;;;;;;;0.00;0.00;;;;;;;;;;5039069;28;20259;-58
2021/03/21 23:09:47;;;;;;;0.00;0.00;;;;;;;;;;5043420;28;20168;-58
2021/03/21 23:12:13;;;;;;;0.30;0.30;;;;;;;;;;5037403;28;20186;-59
2021/03/21 23:14:40;;;;;;;0.00;0.00;;;;;;;;;;5045217;28;20194;-60
2021/03/21 23:17:08;;;;;;;0.00;0.00;;;;;;;;;;5042500;28;20215;-58
2021/03/21 23:19:35;;;;;;;0.00;0.00;;;;;;;;;;5042896;28;20184;-59
2021/03/21 23:22:01;;;;;;;0.00;0.00;;;;;;;;;;5046947;28;21012;-59
2021/03/21 23:24:29;;;;;;;0.73;0.23;;;;;;;;;;5048401;28;20715;-58
2021/03/21 23:26:56;;;;;;;0.00;0.00;;;;;;;;;;5046265;28;20191;-59
2021/03/21 23:29:23;;;;;;;0.00;0.00;;;;;;;;;;5044034;28;20215;-58
2021/03/21 23:31:49;;;;;;;0.00;0.00;;;;;;;;;;5038155;28;20176;-58
2021/03/21 23:34:16;;;;;;;0.00;0.00;;;;;;;;;;5048221;28;20187;-59
2021/03/21 23:36:43;;;;;;;0.00;0.00;;;;;;;;;;5048012;28;21009;-59
2021/03/21 23:39:09;;;;;;;0.10;0.07;;;;;;;;;;5051174;28;20245;-59
2021/03/21 23:41:36;;;;;;;0.13;0.13;;;;;;;;;;5058483;28;20297;-59
2021/03/21 23:44:03;;;;;;;0.00;0.00;;;;;;;;;;5043034;28;20178;-58
2021/03/21 23:46:30;;;;;;;0.30;0.30;;;;;;;;;;5048467;28;20289;-59
2021/03/21 23:48:56;;;;;;;0.00;0.00;;;;;;;;;;5041056;28;20198;-59
2021/03/21 23:51:24;;;;;;;0.73;0.33;;;;;;;;;;5043060;28;20191;-59
2021/03/21 23:53:51;;;;;;;0.00;0.00;;;;;;;;;;5032346;28;20636;-58
2021/03/21 23:56:18;;;;;;;0.03;0.03;;;;;;;;;;5049227;28;20312;-58
2021/03/21 23:58:46;;;;;;;0.10;0.10;;;;;;;;;;5054609;28;20241;-59
